createdAt,value
2019-03-05T00:00:00.250Z,0.00
2019-03-05T00:01:00.074Z,0.00
2019-03-05T00:02:00.066Z,0.00
2019-03-05T00:03:00.058Z,0.00
2019-03-05T00:04:00.059Z,0.00
2019-03-05T00:05:00.027Z,0.00
2019-03-05T00:06:00.065Z,0.00
2019-03-05T00:06:59.996Z,0.00
2019-03-05T00:08:00.028Z,0.00
2019-03-05T00:09:00.003Z,0.00
2019-03-05T00:10:00.004Z,0.00
2019-03-05T00:10:59.962Z,0.00
2019-03-05T00:11:59.946Z,0.00
2019-03-05T00:12:59.938Z,0.00
2019-03-05T00:13:59.968Z,0.00
2019-03-05T00:14:59.916Z,0.00
2019-03-05T00:15:59.905Z,0.00
2019-03-05T00:16:59.919Z,0.00
2019-03-05T00:17:59.921Z,0.00
2019-03-05T00:18:59.869Z,0.00
2019-03-05T00:19:59.860Z,0.00
2019-03-05T00:20:59.851Z,0.00
2019-03-05T00:21:59.853Z,0.00
2019-03-05T00:22:59.838Z,0.00
2019-03-05T00:23:59.855Z,0.00
2019-03-05T00:24:59.830Z,0.00
2019-03-05T00:25:59.806Z,0.00
2019-03-05T00:26:59.819Z,0.00
2019-03-05T00:27:59.783Z,0.00
2019-03-05T00:28:59.847Z,0.00
2019-03-05T00:29:59.763Z,0.00
2019-03-05T00:30:59.748Z,0.00
2019-03-05T00:31:59.738Z,0.00
2019-03-05T00:32:59.725Z,0.00
2019-03-05T00:33:59.725Z,0.00
2019-03-05T00:34:59.744Z,0.00
2019-03-05T00:35:59.702Z,0.00
2019-03-05T00:36:59.686Z,0.00
2019-03-05T00:37:59.685Z,0.00
2019-03-05T00:38:59.694Z,0.00
2019-03-05T00:39:59.664Z,0.00
2019-03-05T00:40:59.706Z,0.00
2019-03-05T00:41:59.632Z,0.00
2019-03-05T00:42:59.630Z,0.00
2019-03-05T00:43:59.649Z,0.00
2019-03-05T00:44:59.601Z,0.00
2019-03-05T00:45:59.592Z,0.00
2019-03-05T00:46:59.636Z,0.00
2019-03-05T00:47:59.565Z,0.00
2019-03-05T00:48:59.580Z,0.00
2019-03-05T00:49:59.549Z,0.00
2019-03-05T00:50:59.534Z,0.00
2019-03-05T00:51:59.552Z,0.00
2019-03-05T00:52:59.571Z,0.00
2019-03-05T00:53:59.513Z,0.00
2019-03-05T00:54:59.496Z,0.00
2019-03-05T00:55:59.509Z,0.00
2019-03-05T00:56:59.475Z,0.00
2019-03-05T00:57:59.481Z,0.00
2019-03-05T00:58:59.508Z,0.00
2019-03-05T00:59:59.490Z,0.00
2019-03-05T01:00:59.435Z,0.00
2019-03-05T01:01:59.422Z,0.00
2019-03-05T01:02:59.428Z,0.00
2019-03-05T01:03:59.408Z,0.00
2019-03-05T01:04:59.447Z,0.00
2019-03-05T01:05:59.394Z,0.00
2019-03-05T01:06:59.384Z,0.00
2019-03-05T01:07:59.365Z,0.00
2019-03-05T01:08:59.351Z,0.00
2019-03-05T01:09:59.345Z,0.00
2019-03-05T01:10:59.382Z,0.00
2019-03-05T01:11:59.329Z,0.00
2019-03-05T01:12:59.310Z,0.00
2019-03-05T01:13:59.300Z,0.00
2019-03-05T01:14:59.306Z,0.00
2019-03-05T01:15:59.285Z,0.00
2019-03-05T01:16:59.310Z,0.00
2019-03-05T01:17:59.284Z,0.00
2019-03-05T01:18:59.250Z,0.00
2019-03-05T01:19:59.278Z,0.00
2019-03-05T01:20:59.234Z,0.00
2019-03-05T01:21:59.225Z,0.00
2019-03-05T01:22:59.220Z,0.00
2019-03-05T01:23:59.198Z,0.00
2019-03-05T01:24:59.186Z,0.00
2019-03-05T01:25:59.226Z,0.00
2019-03-05T01:26:59.172Z,0.00
2019-03-05T01:27:59.162Z,0.00
2019-03-05T01:28:59.146Z,0.00
2019-03-05T01:29:59.151Z,0.00
2019-03-05T01:30:59.132Z,0.00
2019-03-05T01:31:59.161Z,0.00
2019-03-05T01:32:59.106Z,0.00
2019-03-05T01:33:59.092Z,0.00
2019-03-05T01:34:59.090Z,0.00
2019-03-05T01:35:59.118Z,0.00
2019-03-05T01:36:59.065Z,0.00
2019-03-05T01:37:59.089Z,0.00
2019-03-05T01:38:59.045Z,0.00
2019-03-05T01:39:59.031Z,0.00
2019-03-05T01:40:59.027Z,0.00
2019-03-05T01:41:59.030Z,0.00
2019-03-05T01:42:59.055Z,0.00
2019-03-05T01:43:59.001Z,0.00
2019-03-05T01:44:58.983Z,0.00
2019-03-05T01:45:58.982Z,0.00
2019-03-05T01:46:58.969Z,0.00
2019-03-05T01:47:58.947Z,0.00
2019-03-05T01:48:58.979Z,0.00
2019-03-05T01:49:58.929Z,0.00
2019-03-05T01:50:58.920Z,0.00
2019-03-05T01:51:58.904Z,0.00
2019-03-05T01:52:58.900Z,0.00
2019-03-05T01:53:58.886Z,0.00
2019-03-05T01:54:58.928Z,0.00
2019-03-05T01:55:58.865Z,0.00
2019-03-05T01:56:58.860Z,0.00
2019-03-05T01:57:58.884Z,0.00
2019-03-05T01:58:58.843Z,0.00
2019-03-05T01:59:58.839Z,0.00
2019-03-05T02:00:58.812Z,0.00
2019-03-05T02:01:58.801Z,0.00
2019-03-05T02:02:58.794Z,0.00
2019-03-05T02:03:58.825Z,0.00
2019-03-05T02:04:58.779Z,0.00
2019-03-05T02:05:58.762Z,0.00
2019-03-05T02:06:58.750Z,0.00
2019-03-05T02:07:58.755Z,0.00
2019-03-05T02:08:58.728Z,0.00
2019-03-05T02:09:58.760Z,0.00
2019-03-05T02:10:58.707Z,0.00
2019-03-05T02:11:58.696Z,0.00
2019-03-05T02:12:58.684Z,0.00
2019-03-05T02:13:58.688Z,0.00
2019-03-05T02:14:58.684Z,0.00
2019-03-05T02:15:58.701Z,0.00
2019-03-05T02:16:58.649Z,0.00
2019-03-05T02:17:58.644Z,0.00
2019-03-05T02:18:58.623Z,0.00
2019-03-05T02:19:58.614Z,0.00
2019-03-05T02:20:58.625Z,0.00
2019-03-05T02:21:58.648Z,0.00
2019-03-05T02:22:58.631Z,0.00
2019-03-05T02:23:58.601Z,0.00
2019-03-05T02:24:58.566Z,0.00
2019-03-05T02:25:58.588Z,0.00
2019-03-05T02:26:58.548Z,0.00
2019-03-05T02:27:58.537Z,0.00
2019-03-05T02:28:58.571Z,0.00
2019-03-05T02:29:58.531Z,0.00
2019-03-05T02:30:58.540Z,0.00
2019-03-05T02:31:58.490Z,0.00
2019-03-05T02:32:58.527Z,0.00
2019-03-05T02:33:58.488Z,0.00
2019-03-05T02:34:58.463Z,0.00
2019-03-05T02:35:58.452Z,0.00
2019-03-05T02:36:58.447Z,0.00
2019-03-05T02:37:58.430Z,0.00
2019-03-05T02:38:58.472Z,0.00
2019-03-05T02:39:58.408Z,0.00
2019-03-05T02:40:58.401Z,0.00
2019-03-05T02:41:58.390Z,0.00
2019-03-05T02:42:58.377Z,0.00
2019-03-05T02:43:58.391Z,0.00
2019-03-05T02:44:58.455Z,0.00
2019-03-05T02:45:58.345Z,0.00
2019-03-05T02:46:58.366Z,0.00
2019-03-05T02:47:58.329Z,0.00
2019-03-05T02:48:58.314Z,0.00
2019-03-05T02:49:58.373Z,0.00
2019-03-05T02:50:58.301Z,0.00
2019-03-05T02:51:58.291Z,0.00
2019-03-05T02:53:00.381Z,0.00
2019-03-05T02:53:58.282Z,0.00
2019-03-05T02:54:58.258Z,0.00
2019-03-05T02:55:58.315Z,0.00
2019-03-05T02:56:58.236Z,0.00
2019-03-05T02:57:58.225Z,0.00
2019-03-05T02:58:58.224Z,0.00
2019-03-05T02:59:58.220Z,0.00
2019-03-05T03:00:58.215Z,0.00
2019-03-05T03:01:58.232Z,0.00
2019-03-05T03:02:58.171Z,0.00
2019-03-05T03:03:58.164Z,0.00
2019-03-05T03:04:58.159Z,0.00
2019-03-05T03:05:58.144Z,0.00
2019-03-05T03:06:58.155Z,0.00
2019-03-05T03:08:24.175Z,0.00
2019-03-05T03:08:59.122Z,0.00
2019-03-05T03:09:58.113Z,0.00
2019-03-05T03:10:58.089Z,0.00
2019-03-05T03:11:58.119Z,0.00
2019-03-05T03:12:58.076Z,0.00
2019-03-05T03:13:58.100Z,0.00
2019-03-05T03:14:58.065Z,0.00
2019-03-05T03:15:58.042Z,0.00
2019-03-05T03:16:58.042Z,0.00
2019-03-05T03:17:58.049Z,0.00
2019-03-05T03:18:58.018Z,0.00
2019-03-05T03:19:58.066Z,0.00
2019-03-05T03:20:57.987Z,0.00
2019-03-05T03:21:57.990Z,0.00
2019-03-05T03:22:57.966Z,0.00
2019-03-05T03:23:57.962Z,0.00
2019-03-05T03:24:57.962Z,0.00
2019-03-05T03:25:58.003Z,0.00
2019-03-05T03:26:57.937Z,0.00
2019-03-05T03:27:57.921Z,0.00
2019-03-05T03:28:57.989Z,0.00
2019-03-05T03:29:57.943Z,0.00
2019-03-05T03:30:57.908Z,0.00
2019-03-05T03:31:57.940Z,0.00
2019-03-05T03:32:57.866Z,0.00
2019-03-05T03:33:57.885Z,0.00
2019-03-05T03:34:57.913Z,0.00
2019-03-05T03:35:57.832Z,0.00
2019-03-05T03:36:57.830Z,0.00
2019-03-05T03:37:57.815Z,0.00
2019-03-05T03:38:57.803Z,0.00
2019-03-05T03:39:57.802Z,0.00
2019-03-05T03:40:57.848Z,0.00
2019-03-05T03:41:57.802Z,0.00
2019-03-05T03:42:57.777Z,0.00
2019-03-05T03:43:57.753Z,0.00
2019-03-05T03:44:57.756Z,0.00
2019-03-05T03:45:57.745Z,0.00
2019-03-05T03:46:57.771Z,0.00
2019-03-05T03:47:57.712Z,0.00
2019-03-05T03:48:57.704Z,0.00
2019-03-05T03:49:57.705Z,0.00
2019-03-05T03:50:57.679Z,0.00
2019-03-05T03:51:57.679Z,0.00
2019-03-05T03:52:57.699Z,0.00
2019-03-05T03:53:57.652Z,0.00
2019-03-05T03:54:57.734Z,0.00
2019-03-05T03:55:57.639Z,0.00
2019-03-05T03:56:57.615Z,0.00
2019-03-05T03:57:57.638Z,0.00
2019-03-05T03:58:57.617Z,0.00
2019-03-05T03:59:57.615Z,0.00
2019-03-05T04:00:57.628Z,0.00
2019-03-05T04:01:57.567Z,0.00
2019-03-05T04:02:57.574Z,0.00
2019-03-05T04:03:57.560Z,0.00
2019-03-05T04:04:57.537Z,0.00
2019-03-05T04:05:57.542Z,0.00
2019-03-05T04:06:57.579Z,0.00
2019-03-05T04:07:57.531Z,0.00
2019-03-05T04:08:57.518Z,0.00
2019-03-05T04:09:57.499Z,0.00
2019-03-05T04:10:57.514Z,0.00
2019-03-05T04:11:57.466Z,0.00
2019-03-05T04:12:57.468Z,0.00
2019-03-05T04:13:59.750Z,0.00
2019-03-05T04:14:57.453Z,0.00
2019-03-05T04:15:57.483Z,0.00
2019-03-05T04:16:57.416Z,0.00
2019-03-05T04:17:57.418Z,0.00
2019-03-05T04:18:57.441Z,0.00
2019-03-05T04:19:57.388Z,0.00
2019-03-05T04:20:57.442Z,0.00
2019-03-05T04:21:57.392Z,0.00
2019-03-05T04:22:57.353Z,0.00
2019-03-05T04:23:57.342Z,0.00
2019-03-05T04:24:57.327Z,0.00
2019-03-05T04:25:57.332Z,0.00
2019-03-05T04:26:57.343Z,0.00
2019-03-05T04:27:57.294Z,0.00
2019-03-05T04:28:57.285Z,0.00
2019-03-05T04:29:57.289Z,0.00
2019-03-05T04:30:57.276Z,0.00
2019-03-05T04:31:57.258Z,0.00
2019-03-05T04:32:57.306Z,0.00
2019-03-05T04:33:57.266Z,0.00
2019-03-05T04:34:57.232Z,0.00
2019-03-05T04:35:57.259Z,0.00
2019-03-05T04:36:57.216Z,0.00
2019-03-05T04:37:57.198Z,0.00
2019-03-05T04:38:57.182Z,0.00
2019-03-05T04:39:57.173Z,0.00
2019-03-05T04:40:57.164Z,0.00
2019-03-05T04:41:57.202Z,0.00
2019-03-05T04:42:57.169Z,0.00
2019-03-05T04:43:57.136Z,0.00
2019-03-05T04:44:57.123Z,0.00
2019-03-05T04:45:57.113Z,0.00
2019-03-05T04:46:57.101Z,0.00
2019-03-05T04:47:57.133Z,0.00
2019-03-05T04:48:57.085Z,0.00
2019-03-05T04:49:57.078Z,0.00
2019-03-05T04:50:57.062Z,0.00
2019-03-05T04:51:57.060Z,0.00
2019-03-05T04:52:57.052Z,0.00
2019-03-05T04:53:57.114Z,0.00
2019-03-05T04:54:57.019Z,0.00
2019-03-05T04:55:57.013Z,0.00
2019-03-05T04:56:56.999Z,0.00
2019-03-05T04:57:57.002Z,0.00
2019-03-05T04:58:56.991Z,0.00
2019-03-05T04:59:57.001Z,0.00
2019-03-05T05:00:57.029Z,0.00
2019-03-05T05:01:56.942Z,0.00
2019-03-05T05:02:58.455Z,0.00
2019-03-05T05:03:56.937Z,0.00
2019-03-05T05:04:56.923Z,0.00
2019-03-05T05:05:56.913Z,0.00
2019-03-05T05:06:56.943Z,0.00
2019-03-05T05:07:56.947Z,0.00
2019-03-05T05:08:56.877Z,0.00
2019-03-05T05:09:56.866Z,0.00
2019-03-05T05:10:56.850Z,0.00
2019-03-05T05:11:56.849Z,0.00
2019-03-05T05:12:56.931Z,0.00
2019-03-05T05:13:56.841Z,0.00
2019-03-05T05:14:56.822Z,0.00
2019-03-05T05:15:56.817Z,0.00
2019-03-05T05:16:56.810Z,0.00
2019-03-05T05:17:56.802Z,0.00
2019-03-05T05:18:56.855Z,0.00
2019-03-05T05:19:56.755Z,0.00
2019-03-05T05:20:56.751Z,0.00
2019-03-05T05:21:56.758Z,0.00
2019-03-05T05:22:57.589Z,0.00
2019-03-05T05:23:56.742Z,0.00
2019-03-05T05:24:56.769Z,0.00
2019-03-05T05:25:56.699Z,0.00
2019-03-05T05:26:56.724Z,4.00
2019-03-05T05:27:56.688Z,4.00
2019-03-05T05:28:56.671Z,4.00
2019-03-05T05:29:56.688Z,4.00
2019-03-05T05:30:56.687Z,4.00
2019-03-05T05:31:58.384Z,8.00
2019-03-05T05:32:56.637Z,8.00
2019-03-05T05:33:56.623Z,8.00
2019-03-05T05:34:56.605Z,12.00
2019-03-05T05:35:56.641Z,12.00
2019-03-05T05:36:56.617Z,16.00
2019-03-05T05:37:56.572Z,24.00
2019-03-05T05:38:56.564Z,28.00
2019-03-05T05:39:56.622Z,36.00
2019-03-05T05:40:56.586Z,44.00
2019-03-05T05:41:56.570Z,52.00
2019-03-05T05:42:56.516Z,60.00
2019-03-05T05:43:56.512Z,68.00
2019-03-05T05:44:56.500Z,80.00
2019-03-05T05:45:56.490Z,96.00
2019-03-05T05:46:56.508Z,112.00
2019-03-05T05:47:56.508Z,132.00
2019-03-05T05:48:56.482Z,152.00
2019-03-05T05:49:56.453Z,176.00
2019-03-05T05:50:56.441Z,212.00
2019-03-05T05:51:56.428Z,248.00
2019-03-05T05:52:56.440Z,288.00
2019-03-05T05:53:56.449Z,320.00
2019-03-05T05:54:56.407Z,352.00
2019-03-05T05:55:56.385Z,388.00
2019-03-05T05:56:56.378Z,424.00
2019-03-05T05:57:56.398Z,468.00
2019-03-05T05:58:56.359Z,516.00
2019-03-05T05:59:56.395Z,576.00
2019-03-05T06:00:56.336Z,636.00
2019-03-05T06:01:56.326Z,684.00
2019-03-05T06:02:56.566Z,708.00
2019-03-05T06:03:56.310Z,740.00
2019-03-05T06:04:56.326Z,792.00
2019-03-05T06:05:56.343Z,868.00
2019-03-05T06:06:56.275Z,948.00
2019-03-05T06:07:56.270Z,1004.00
2019-03-05T06:08:56.259Z,1080.00
2019-03-05T06:09:56.267Z,1148.00
2019-03-05T06:10:56.253Z,1248.00
2019-03-05T06:11:56.262Z,1384.00
2019-03-05T06:12:56.254Z,1492.00
2019-03-05T06:13:56.450Z,1516.00
2019-03-05T06:14:56.195Z,1576.00
2019-03-05T06:15:56.193Z,1684.00
2019-03-05T06:16:56.167Z,1868.00
2019-03-05T06:17:56.178Z,2052.00
2019-03-05T06:18:56.201Z,2356.00
2019-03-05T06:19:56.138Z,2572.00
2019-03-05T06:20:56.148Z,2680.00
2019-03-05T06:21:56.171Z,2800.00
2019-03-05T06:22:56.114Z,2888.00
2019-03-05T06:23:56.108Z,2916.00
2019-03-05T06:24:56.093Z,3156.00
2019-03-05T06:25:56.133Z,3180.00
2019-03-05T06:26:56.070Z,3192.00
2019-03-05T06:27:56.060Z,3384.00
2019-03-05T06:28:56.061Z,3532.00
2019-03-05T06:29:56.060Z,3704.00
2019-03-05T06:30:56.025Z,3800.00
2019-03-05T06:31:56.143Z,3792.00
2019-03-05T06:32:56.032Z,3796.00
2019-03-05T06:33:55.999Z,3704.00
2019-03-05T06:34:56.005Z,3732.00
2019-03-05T06:35:55.978Z,3760.00
2019-03-05T06:36:55.974Z,4156.00
2019-03-05T06:37:56.008Z,4700.00
2019-03-05T06:38:55.978Z,4972.00
2019-03-05T06:39:55.938Z,5144.00
2019-03-05T06:40:55.949Z,5168.00
2019-03-05T06:41:55.911Z,5248.00
2019-03-05T06:42:55.913Z,5076.00
2019-03-05T06:43:55.899Z,5204.00
2019-03-05T06:44:55.922Z,5316.00
2019-03-05T06:45:55.921Z,5560.00
2019-03-05T06:46:55.882Z,5724.00
2019-03-05T06:47:55.850Z,5720.00
2019-03-05T06:48:55.842Z,5816.00
2019-03-05T06:49:55.829Z,5888.00
2019-03-05T06:50:55.873Z,5492.00
2019-03-05T06:51:55.808Z,5336.00
2019-03-05T06:52:55.817Z,5152.00
2019-03-05T06:53:55.792Z,5140.00
2019-03-05T06:54:55.825Z,4940.00
2019-03-05T06:55:55.774Z,4812.00
2019-03-05T06:56:55.761Z,4572.00
2019-03-05T06:57:55.762Z,4472.00
2019-03-05T06:58:55.746Z,4552.00
2019-03-05T06:59:55.736Z,4552.00
2019-03-05T07:00:55.758Z,4560.00
2019-03-05T07:01:55.715Z,4436.00
2019-03-05T07:02:55.703Z,4488.00
2019-03-05T07:03:55.686Z,4856.00
2019-03-05T07:04:55.696Z,5200.00
2019-03-05T07:05:55.712Z,5172.00
2019-03-05T07:06:55.664Z,4820.00
2019-03-05T07:07:55.650Z,4600.00
2019-03-05T07:08:55.639Z,4452.00
2019-03-05T07:09:55.665Z,4552.00
2019-03-05T07:10:57.074Z,4920.00
2019-03-05T07:11:55.642Z,4936.00
2019-03-05T07:12:55.600Z,4680.00
2019-03-05T07:13:55.575Z,4508.00
2019-03-05T07:14:55.579Z,4500.00
2019-03-05T07:15:55.631Z,4560.00
2019-03-05T07:16:55.573Z,5828.00
2019-03-05T07:17:55.658Z,14384.00
2019-03-05T07:18:55.540Z,23904.00
2019-03-05T07:19:58.208Z,28864.00
2019-03-05T07:20:55.555Z,28960.00
2019-03-05T07:21:55.504Z,29664.00
2019-03-05T07:22:55.498Z,30848.00
2019-03-05T07:23:55.474Z,31776.00
2019-03-05T07:24:55.472Z,32768.00
2019-03-05T07:25:55.455Z,34272.00
2019-03-05T07:26:55.491Z,34368.00
2019-03-05T07:27:55.453Z,33440.00
2019-03-05T07:28:55.423Z,32320.00
2019-03-05T07:29:55.420Z,31136.00
2019-03-05T07:30:55.404Z,30400.00
2019-03-05T07:31:55.415Z,31168.00
2019-03-05T07:32:55.430Z,32128.00
2019-03-05T07:33:55.410Z,32928.00
2019-03-05T07:34:55.359Z,32928.00
2019-03-05T07:35:55.361Z,34144.00
2019-03-05T07:36:55.357Z,31648.00
2019-03-05T07:37:55.332Z,32064.00
2019-03-05T07:38:55.363Z,32896.00
2019-03-05T07:39:55.347Z,35104.00
2019-03-05T07:40:55.294Z,35648.00
2019-03-05T07:41:55.282Z,38080.00
2019-03-05T07:42:55.284Z,35200.00
2019-03-05T07:43:55.259Z,36800.00
2019-03-05T07:44:55.248Z,40352.00
2019-03-05T07:45:55.291Z,43360.00
2019-03-05T07:46:55.231Z,41472.00
2019-03-05T07:47:55.219Z,39840.00
2019-03-05T07:48:55.269Z,39904.00
2019-03-05T07:49:55.191Z,36768.00
2019-03-05T07:50:55.180Z,42176.00
2019-03-05T07:51:55.173Z,52640.00
2019-03-05T07:52:55.165Z,61440.00
2019-03-05T07:53:55.155Z,75456.00
2019-03-05T07:54:55.190Z,86976.00
2019-03-05T07:55:55.135Z,89120.00
2019-03-05T07:56:55.131Z,78976.00
2019-03-05T07:57:55.106Z,72992.00
2019-03-05T07:58:55.119Z,73952.00
2019-03-05T07:59:55.089Z,76768.00
2019-03-05T08:00:55.114Z,83232.00
2019-03-05T08:01:55.083Z,81920.00
2019-03-05T08:02:55.101Z,79136.00
2019-03-05T08:03:55.042Z,76352.00
2019-03-05T08:04:55.036Z,76480.00
2019-03-05T08:05:55.021Z,68576.00
2019-03-05T08:06:55.023Z,70752.00
2019-03-05T08:07:55.018Z,73216.00
2019-03-05T08:08:55.034Z,74272.00
2019-03-05T08:09:54.979Z,73856.00
2019-03-05T08:10:54.980Z,76480.00
2019-03-05T08:11:54.958Z,78592.00
2019-03-05T08:12:54.956Z,79456.00
2019-03-05T08:13:54.943Z,77504.00
2019-03-05T08:14:54.971Z,77376.00
2019-03-05T08:16:02.470Z,81856.00
2019-03-05T08:16:55.906Z,82016.00
2019-03-05T08:17:54.896Z,80512.00
2019-03-05T08:18:54.886Z,82432.00
2019-03-05T08:19:54.887Z,84256.00
2019-03-05T08:20:54.903Z,82592.00
2019-03-05T08:21:54.900Z,79392.00
2019-03-05T08:22:54.858Z,80512.00
2019-03-05T08:23:54.835Z,81792.00
2019-03-05T08:24:54.822Z,84768.00
2019-03-05T08:25:54.810Z,82240.00
2019-03-05T08:26:54.800Z,80864.00
2019-03-05T08:27:54.830Z,80512.00
2019-03-05T08:28:54.794Z,81504.00
2019-03-05T08:29:54.768Z,82784.00
2019-03-05T08:30:54.755Z,84832.00
2019-03-05T08:31:54.744Z,83328.00
2019-03-05T08:32:54.742Z,79232.00
2019-03-05T08:33:54.763Z,79136.00
2019-03-05T08:34:54.723Z,76576.00
2019-03-05T08:35:54.700Z,75680.00
2019-03-05T08:36:54.690Z,76768.00
2019-03-05T08:37:54.687Z,76608.00
2019-03-05T08:38:54.671Z,78720.00
2019-03-05T08:39:54.697Z,78944.00
2019-03-05T08:40:54.654Z,78528.00
2019-03-05T08:41:54.642Z,77856.00
2019-03-05T08:42:54.637Z,78144.00
2019-03-05T08:43:54.631Z,77856.00
2019-03-05T08:44:54.649Z,78048.00
2019-03-05T08:45:54.609Z,79872.00
2019-03-05T08:46:54.630Z,69952.00
2019-03-05T08:47:54.616Z,78432.00
2019-03-05T08:48:54.569Z,75712.00
2019-03-05T08:49:54.581Z,76992.00
2019-03-05T08:50:54.545Z,76704.00
2019-03-05T08:51:54.537Z,42080.00
2019-03-05T08:52:54.527Z,68032.00
2019-03-05T08:53:54.554Z,75872.00
2019-03-05T08:54:54.525Z,75072.00
2019-03-05T08:55:54.522Z,79744.00
2019-03-05T08:56:54.480Z,75616.00
2019-03-05T08:57:54.473Z,82400.00
2019-03-05T08:58:54.471Z,86240.00
2019-03-05T08:59:54.489Z,89120.00
2019-03-05T09:00:54.441Z,87840.00
2019-03-05T09:01:54.429Z,65760.00
2019-03-05T09:02:54.446Z,84512.00
2019-03-05T09:03:54.468Z,78496.00
2019-03-05T09:04:54.404Z,79840.00
2019-03-05T09:05:54.418Z,83072.00
2019-03-05T09:06:54.377Z,87264.00
2019-03-05T09:07:54.367Z,42304.00
2019-03-05T09:08:54.345Z,23520.00
2019-03-05T09:09:54.334Z,20608.00
2019-03-05T09:10:54.341Z,20512.00
2019-03-05T09:11:54.354Z,22720.00
2019-03-05T09:12:54.307Z,97152.00
2019-03-05T09:13:54.295Z,93600.00
2019-03-05T09:14:54.279Z,93568.00
2019-03-05T09:15:54.332Z,96352.00
2019-03-05T09:16:54.256Z,96928.00
2019-03-05T09:17:54.249Z,98720.00
2019-03-05T09:18:54.241Z,98528.00
2019-03-05T09:19:54.232Z,94656.00
2019-03-05T09:20:54.223Z,91104.00
2019-03-05T09:21:54.259Z,95360.00
2019-03-05T09:22:54.199Z,93952.00
2019-03-05T09:23:54.188Z,93120.00
2019-03-05T09:24:54.173Z,97024.00
2019-03-05T09:25:54.175Z,59488.00
2019-03-05T09:26:54.168Z,94400.00
2019-03-05T09:27:55.354Z,78560.00
2019-03-05T09:28:54.137Z,91072.00
2019-03-05T09:29:54.132Z,97440.00
2019-03-05T09:30:54.108Z,44288.00
2019-03-05T09:31:54.105Z,32160.00
2019-03-05T09:32:54.150Z,84672.00
2019-03-05T09:33:54.081Z,103616.00
2019-03-05T09:34:54.065Z,73536.00
2019-03-05T09:35:54.057Z,29376.00
2019-03-05T09:36:54.043Z,47456.00
2019-03-05T09:37:54.034Z,101856.00
2019-03-05T09:38:54.092Z,98624.00
2019-03-05T09:39:54.013Z,97696.00
2019-03-05T09:40:54.002Z,96768.00
2019-03-05T09:41:54.004Z,98176.00
2019-03-05T09:42:53.990Z,101440.00
2019-03-05T09:43:53.982Z,105792.00
2019-03-05T09:44:54.019Z,103200.00
2019-03-05T09:45:53.951Z,101248.00
2019-03-05T09:46:53.979Z,100320.00
2019-03-05T09:47:53.931Z,102848.00
2019-03-05T09:48:53.925Z,68864.00
2019-03-05T09:49:53.902Z,15828.00
2019-03-05T09:50:53.893Z,67936.00
2019-03-05T09:51:53.902Z,113728.00
2019-03-05T09:52:55.253Z,109120.00
2019-03-05T09:53:53.862Z,110752.00
2019-03-05T09:54:53.857Z,115296.00
2019-03-05T09:55:53.863Z,115136.00
2019-03-05T09:56:53.828Z,116736.00
2019-03-05T09:57:53.818Z,117600.00
2019-03-05T09:58:53.860Z,119328.00
2019-03-05T09:59:53.796Z,115680.00
2019-03-05T10:00:53.813Z,113280.00
2019-03-05T10:01:53.778Z,112352.00
2019-03-05T10:02:53.773Z,110336.00
2019-03-05T10:03:53.797Z,111552.00
2019-03-05T10:04:53.742Z,113088.00
2019-03-05T10:05:53.773Z,113856.00
2019-03-05T10:06:53.790Z,116672.00
2019-03-05T10:07:53.713Z,117760.00
2019-03-05T10:08:53.742Z,113952.00
2019-03-05T10:09:53.689Z,109856.00
2019-03-05T10:10:53.689Z,108864.00
2019-03-05T10:11:56.834Z,109408.00
2019-03-05T10:12:53.678Z,105792.00
2019-03-05T10:13:53.649Z,104832.00
2019-03-05T10:14:53.674Z,105920.00
2019-03-05T10:15:53.673Z,105376.00
2019-03-05T10:16:53.641Z,108128.00
2019-03-05T10:17:53.620Z,106240.00
2019-03-05T10:18:53.616Z,104576.00
2019-03-05T10:19:53.586Z,106880.00
2019-03-05T10:20:53.623Z,102400.00
2019-03-05T10:21:53.561Z,110112.00
2019-03-05T10:22:53.554Z,107680.00
2019-03-05T10:23:53.546Z,106336.00
2019-03-05T10:24:53.537Z,105632.00
2019-03-05T10:25:53.522Z,107040.00
2019-03-05T10:26:53.607Z,104864.00
2019-03-05T10:27:53.495Z,103328.00
2019-03-05T10:28:53.488Z,102784.00
2019-03-05T10:29:53.485Z,102144.00
2019-03-05T10:30:53.467Z,105568.00
2019-03-05T10:31:53.467Z,110720.00
2019-03-05T10:32:53.480Z,110464.00
2019-03-05T10:33:53.431Z,107200.00
2019-03-05T10:34:53.442Z,106560.00
2019-03-05T10:35:53.410Z,102592.00
2019-03-05T10:36:53.394Z,101056.00
2019-03-05T10:37:53.385Z,101376.00
2019-03-05T10:38:57.356Z,102400.00
2019-03-05T10:39:53.365Z,102912.00
2019-03-05T10:40:53.376Z,103744.00
2019-03-05T10:41:53.348Z,101120.00
2019-03-05T10:42:53.328Z,103232.00
2019-03-05T10:43:53.323Z,102464.00
2019-03-05T10:44:53.354Z,101888.00
2019-03-05T10:45:53.305Z,101408.00
2019-03-05T10:46:55.942Z,102592.00
2019-03-05T10:47:53.276Z,96704.00
2019-03-05T10:48:53.268Z,99616.00
2019-03-05T10:49:53.261Z,100128.00
2019-03-05T10:50:53.292Z,97152.00
2019-03-05T10:51:53.245Z,96416.00
2019-03-05T10:52:53.248Z,97632.00
2019-03-05T10:53:53.216Z,99232.00
2019-03-05T10:54:53.203Z,100128.00
2019-03-05T10:55:53.212Z,101856.00
2019-03-05T10:56:53.241Z,99936.00
2019-03-05T10:57:53.172Z,95744.00
2019-03-05T10:58:53.176Z,96608.00
2019-03-05T10:59:53.146Z,94304.00
2019-03-05T11:00:53.160Z,94976.00
2019-03-05T11:01:53.131Z,95008.00
2019-03-05T11:02:53.154Z,95648.00
2019-03-05T11:03:53.147Z,95104.00
2019-03-05T11:04:53.095Z,92704.00
2019-03-05T11:05:53.093Z,96416.00
2019-03-05T11:06:53.087Z,93120.00
2019-03-05T11:07:53.062Z,94720.00
2019-03-05T11:08:53.052Z,99744.00
2019-03-05T11:09:53.081Z,101408.00
2019-03-05T11:10:53.031Z,99520.00
2019-03-05T11:11:53.016Z,98976.00
2019-03-05T11:12:53.029Z,102240.00
2019-03-05T11:13:52.997Z,102080.00
2019-03-05T11:14:52.991Z,102240.00
2019-03-05T11:15:53.017Z,101248.00
2019-03-05T11:16:52.973Z,99360.00
2019-03-05T11:17:52.950Z,96480.00
2019-03-05T11:18:52.959Z,93664.00
2019-03-05T11:19:52.926Z,94720.00
2019-03-05T11:20:52.923Z,92448.00
2019-03-05T11:21:52.953Z,94432.00
2019-03-05T11:22:52.895Z,95680.00
2019-03-05T11:23:52.885Z,97952.00
2019-03-05T11:24:52.900Z,101152.00
2019-03-05T11:25:52.864Z,107552.00
2019-03-05T11:26:52.857Z,107936.00
2019-03-05T11:27:52.880Z,109376.00
2019-03-05T11:28:54.656Z,109024.00
2019-03-05T11:29:52.826Z,105152.00
2019-03-05T11:30:52.875Z,104288.00
2019-03-05T11:31:52.802Z,107264.00
2019-03-05T11:32:52.805Z,105344.00
2019-03-05T11:33:52.778Z,101792.00
2019-03-05T11:34:52.763Z,98432.00
2019-03-05T11:35:52.756Z,96384.00
2019-03-05T11:36:52.787Z,95104.00
2019-03-05T11:37:52.734Z,93440.00
2019-03-05T11:38:52.742Z,97248.00
2019-03-05T11:39:55.266Z,107264.00
2019-03-05T11:40:52.700Z,112256.00
2019-03-05T11:41:52.686Z,111200.00
2019-03-05T11:42:52.723Z,102304.00
2019-03-05T11:43:52.668Z,96064.00
2019-03-05T11:45:06.698Z,96960.00
2019-03-05T11:45:53.646Z,97696.00
2019-03-05T11:46:52.631Z,94560.00
2019-03-05T11:47:52.627Z,97568.00
2019-03-05T11:48:52.658Z,102560.00
2019-03-05T11:49:52.601Z,103872.00
2019-03-05T11:50:52.602Z,104384.00
2019-03-05T11:51:52.578Z,98688.00
2019-03-05T11:52:52.565Z,101984.00
2019-03-05T11:53:52.601Z,109152.00
2019-03-05T11:54:52.560Z,109824.00
2019-03-05T11:55:52.536Z,109696.00
2019-03-05T11:56:52.545Z,106016.00
2019-03-05T11:57:52.520Z,97536.00
2019-03-05T11:58:52.505Z,97536.00
2019-03-05T11:59:52.540Z,97984.00
2019-03-05T12:00:52.478Z,102848.00
2019-03-05T12:01:52.473Z,103424.00
2019-03-05T12:02:52.476Z,108000.00
2019-03-05T12:03:52.493Z,106880.00
2019-03-05T12:04:52.441Z,103840.00
2019-03-05T12:05:52.471Z,98528.00
2019-03-05T12:06:52.413Z,92384.00
2019-03-05T12:07:52.405Z,90432.00
2019-03-05T12:08:52.390Z,96576.00
2019-03-05T12:09:52.428Z,103648.00
2019-03-05T12:10:52.374Z,106912.00
2019-03-05T12:11:52.406Z,108160.00
2019-03-05T12:12:52.352Z,105408.00
2019-03-05T12:13:52.341Z,99104.00
2019-03-05T12:14:52.329Z,91424.00
2019-03-05T12:15:52.382Z,89696.00
2019-03-05T12:16:52.306Z,93056.00
2019-03-05T12:17:52.295Z,96192.00
2019-03-05T12:18:52.287Z,98400.00
2019-03-05T12:19:52.286Z,97920.00
2019-03-05T12:20:52.270Z,98720.00
2019-03-05T12:21:52.308Z,96160.00
2019-03-05T12:22:52.243Z,95488.00
2019-03-05T12:23:52.229Z,91680.00
2019-03-05T12:24:52.220Z,91136.00